Time;durP1;ratioP1;P1;durP2;ratioP2;P2;SDS_P1;SDS_P2;PMS_P1;PMS_P2;Temp;Humidity;BMP_temperature;BMP_pressure;BME280_temperature;BME280_humidity;BME280_pressure;Samples;Min_cycle;Max_cycle;Signal;HPM_P1;HPM_P2
2023/06/15 00:00:17;;;;;;;2.15;1.92;;;;;;;20.13;82.90;99415.44;4954055;29;20061;-78
2023/06/15 00:02:42;;;;;;;3.75;2.53;;;;;;;20.26;83.48;99460.25;4953815;29;20035;-79
2023/06/15 00:05:08;;;;;;;2.20;2.00;;;;;;;20.35;83.33;99465.06;4954108;29;20557;-79
2023/06/15 00:07:34;;;;;;;3.28;2.63;;;;;;;20.34;83.03;99448.13;4954088;29;20086;-79
2023/06/15 00:09:59;;;;;;;4.00;2.10;;;;;;;20.21;82.67;99439.94;4953153;29;20035;-78
2023/06/15 00:12:25;;;;;;;5.97;2.55;;;;;;;20.41;82.38;99466.53;4954349;29;20039;-78
2023/06/15 00:14:50;;;;;;;3.15;1.85;;;;;;;20.15;82.47;99432.28;4952886;29;20362;-79
2023/06/15 00:17:16;;;;;;;3.10;2.17;;;;;;;20.01;83.42;99441.09;4954105;29;20031;-79
2023/06/15 00:19:44;;;;;;;3.38;2.65;;;;;;;20.07;84.13;99452.44;4953884;29;20549;-79
2023/06/15 00:22:14;;;;;;;4.47;2.70;;;;;;;19.94;84.28;99437.09;4954044;29;20031;-78
2023/06/15 00:24:40;;;;;;;3.83;3.03;;;;;;;20.17;83.92;99467.88;4953720;29;20039;-79
2023/06/15 00:27:08;;;;;;;2.58;2.03;;;;;;;19.92;83.98;99436.28;4953687;29;20110;-79
2023/06/15 00:29:33;;;;;;;2.95;2.17;;;;;;;19.93;83.50;99421.13;4953904;29;20031;-79
2023/06/15 00:31:59;;;;;;;3.28;2.05;;;;;;;20.30;82.64;99459.97;4953302;29;20039;-78
2023/06/15 00:34:25;;;;;;;10.20;1.70;;;;;;;20.23;82.57;99447.03;4953518;29;20047;-79
2023/06/15 00:36:50;;;;;;;3.88;2.55;;;;;;;20.03;82.95;99419.59;4952747;29;20508;-79
2023/06/15 00:39:16;;;;;;;3.88;2.97;;;;;;;20.08;83.19;99451.47;4953383;29;20544;-80
2023/06/15 00:41:42;;;;;;;4.10;2.13;;;;;;;20.06;83.50;99464.09;4953205;29;20421;-81
2023/06/15 00:44:09;;;;;;;6.03;2.45;;;;;;;20.03;83.54;99449.06;4953622;29;20413;-80
2023/06/15 00:46:34;;;;;;;2.83;1.83;;;;;;;20.11;83.77;99464.66;4953260;29;20087;-82
2023/06/15 00:49:00;;;;;;;4.80;1.58;;;;;;;20.14;83.60;99470.72;4952338;28;20068;-79
2023/06/15 00:51:26;;;;;;;2.90;2.17;;;;;;;20.36;82.40;99466.78;4952850;29;20107;-79
2023/06/15 00:53:52;;;;;;;4.18;2.75;;;;;;;20.30;82.27;99457.28;4952685;29;20138;-80
2023/06/15 00:56:18;;;;;;;3.40;2.28;;;;;;;20.45;81.64;99471.59;4953416;29;20031;-79
2023/06/15 00:58:44;;;;;;;4.30;2.58;;;;;;;20.53;81.43;99481.88;4952947;29;20039;-80
2023/06/15 01:01:10;;;;;;;4.90;2.45;;;;;;;20.37;81.13;99453.31;4953650;29;20034;-80
2023/06/15 01:03:35;;;;;;;2.58;1.90;;;;;;;20.52;81.47;99477.44;4952499;29;20043;-79
2023/06/15 01:06:12;;;;;;;3.88;2.50;;;;;;;20.47;80.88;99455.44;4952832;29;20448;-79
2023/06/15 01:08:40;;;;;;;6.55;2.80;;;;;;;20.42;81.06;99449.47;4953411;29;20036;-79
2023/06/15 01:11:07;;;;;;;3.40;2.13;;;;;;;20.46;80.33;99461.75;4953587;29;20038;-80
2023/06/15 01:13:34;;;;;;;3.58;2.17;;;;;;;20.35;81.10;99460.56;4951407;29;20087;-79
2023/06/15 01:16:04;;;;;;;5.30;2.03;;;;;;;20.27;81.26;99451.28;4953199;29;20023;-79
2023/06/15 01:18:34;;;;;;;3.17;2.10;;;;;;;20.26;81.77;99461.09;4952617;29;20039;-79
2023/06/15 01:21:02;;;;;;;12.93;2.58;;;;;;;20.24;81.88;99452.31;4952826;29;20027;-78
2023/06/15 01:23:45;;;;;;;12.45;4.57;;;;;;;20.04;81.84;99435.56;4951883;29;20461;-80
2023/06/15 01:26:11;;;;;;;4.55;2.40;;;;;;;19.97;83.38;99446.72;4931703;29;20043;-80
2023/06/15 01:28:41;;;;;;;4.03;2.30;;;;;;;19.87;83.95;99454.44;4933223;29;20485;-79
2023/06/15 01:31:09;;;;;;;4.43;2.78;;;;;;;19.81;84.13;99444.94;4933326;29;20028;-79
2023/06/15 01:33:49;;;;;;;4.43;2.17;;;;;;;19.87;83.44;99449.09;4940469;29;20109;-79
2023/06/15 01:36:16;;;;;;;5.70;2.53;;;;;;;19.92;83.03;99438.13;4952228;29;20102;-79
2023/06/15 01:38:43;;;;;;;3.13;1.95;;;;;;;19.90;83.44;99466.78;4951635;29;20043;-79
2023/06/15 01:41:10;;;;;;;5.47;2.65;;;;;;;19.83;83.35;99439.50;4952342;29;20042;-79
2023/06/15 01:43:37;;;;;;;3.03;2.25;;;;;;;19.87;83.07;99448.22;4952174;29;20039;-79
2023/06/15 01:46:04;;;;;;;3.83;2.92;;;;;;;19.76;83.63;99457.69;4952500;29;20453;-79
2023/06/15 01:48:30;;;;;;;4.75;2.42;;;;;;;19.43;84.09;99418.53;4951657;29;20481;-79
2023/06/15 01:50:56;;;;;;;3.85;2.30;;;;;;;19.53;84.12;99426.03;4952533;29;20039;-78
2023/06/15 01:53:23;;;;;;;4.68;3.25;;;;;;;19.34;84.63;99405.66;4952387;29;20081;-79
2023/06/15 01:55:49;;;;;;;6.75;2.50;;;;;;;19.44;84.63;99435.44;4952103;29;20054;-79
2023/06/15 01:58:17;;;;;;;2.88;1.40;;;;;;;19.34;85.14;99424.38;4951959;28;20615;-79
2023/06/15 02:00:44;;;;;;;3.90;2.60;;;;;;;19.40;85.75;99445.44;4950954;29;20039;-79
2023/06/15 02:03:09;;;;;;;5.63;2.97;;;;;;;19.37;85.28;99426.00;4952358;29;20437;-79
2023/06/15 02:05:39;;;;;;;2.63;2.13;;;;;;;19.17;85.73;99433.34;4951885;29;20042;-79
2023/06/15 02:08:06;;;;;;;7.10;2.38;;;;;;;19.17;85.79;99437.81;4952197;29;20031;-79
2023/06/15 02:10:32;;;;;;;4.00;2.60;;;;;;;19.20;86.32;99442.97;4951146;29;20027;-79
2023/06/15 12:43:06;;;;;;;1.48;0.90;;;;;;;27.64;62.76;99307.19;4950733;28;20058;-85
2023/06/15 12:45:35;;;;;;;1.15;0.85;;;;;;;27.92;63.82;99339.88;4953594;29;20039;-86
2023/06/15 12:48:02;;;;;;;2.40;1.58;;;;;;;27.52;62.36;99321.88;4953553;29;20033;-86
2023/06/15 12:50:31;;;;;;;9.13;2.25;;;;;;;27.59;62.92;99312.19;4953016;29;20073;-85
2023/06/15 12:52:57;;;;;;;1.38;0.93;;;;;;;27.95;63.39;99336.03;4943568;29;20034;-86
2023/06/15 12:55:27;;;;;;;2.10;1.15;;;;;;;28.03;63.52;99312.63;4934407;29;20040;-85
2023/06/15 12:57:53;;;;;;;1.55;0.90;;;;;;;27.90;61.31;99324.75;4933804;29;20042;-85
2023/06/15 13:00:20;;;;;;;1.38;1.25;;;;;;;27.82;61.93;99296.53;4934302;29;20159;-87
2023/06/15 13:02:46;;;;;;;3.33;2.03;;;;;;;27.90;63.74;99306.66;4933597;29;20067;-85
2023/06/15 13:05:11;;;;;;;1.73;1.10;;;;;;;27.79;62.53;99307.66;4934528;29;20163;-87
2023/06/15 13:07:38;;;;;;;3.72;1.75;;;;;;;27.49;63.36;99290.50;4930605;29;20031;-86
2023/06/15 13:10:05;;;;;;;1.45;1.00;;;;;;;27.65;64.78;99280.97;4944216;29;20121;-85
2023/06/15 13:12:31;;;;;;;4.10;1.63;;;;;;;27.80;64.06;99306.63;4940480;29;20106;-85
2023/06/15 13:14:57;;;;;;;1.88;1.38;;;;;;;27.64;63.55;99282.81;4940661;29;20031;-84
2023/06/15 13:17:22;;;;;;;2.63;1.27;;;;;;;27.66;62.70;99297.06;4939176;29;20113;-86
2023/06/15 13:19:48;;;;;;;2.33;1.40;;;;;;;27.61;62.60;99291.22;4939157;29;20039;-85
2023/06/15 13:22:14;;;;;;;2.88;1.88;;;;;;;27.75;63.65;99283.69;4936170;29;20047;-86
2023/06/15 13:24:39;;;;;;;3.03;1.23;;;;;;;27.64;65.71;99285.53;4939833;29;20035;-82
2023/06/15 13:27:07;;;;;;;2.42;1.67;;;;;;;27.66;65.58;99275.41;4938637;29;20031;-82
2023/06/15 13:29:36;;;;;;;3.00;1.77;;;;;;;27.83;65.27;99291.94;4941869;29;20071;-83
2023/06/15 13:32:03;;;;;;;1.08;0.98;;;;;;;27.93;63.89;99300.94;4940266;29;20035;-83
2023/06/15 13:34:29;;;;;;;8.27;1.70;;;;;;;27.67;63.16;99263.56;4937834;29;20509;-82
2023/06/15 13:36:55;;;;;;;2.03;1.27;;;;;;;27.41;64.17;99248.91;4942770;29;20023;-83
2023/06/15 13:39:20;;;;;;;3.03;1.75;;;;;;;27.50;65.50;99269.72;4937711;29;20043;-84
2023/06/15 13:41:46;;;;;;;3.38;2.00;;;;;;;27.41;66.23;99260.56;4940759;29;20053;-83
2023/06/15 13:44:12;;;;;;;3.17;2.10;;;;;;;27.48;66.01;99252.72;4937727;29;20051;-83
2023/06/15 13:46:37;;;;;;;2.30;1.85;;;;;;;27.32;65.29;99254.16;4938462;29;20019;-83
2023/06/15 13:49:05;;;;;;;3.63;2.40;;;;;;;27.55;66.82;99261.16;4940291;29;20057;-85
2023/06/15 13:51:31;;;;;;;4.50;2.78;;;;;;;27.50;67.94;99251.59;4937663;29;20055;-83
2023/06/15 13:53:57;;;;;;;4.40;3.13;;;;;;;27.75;67.04;99252.03;4939498;29;20055;-84
2023/06/15 13:56:24;;;;;;;3.53;2.13;;;;;;;27.29;66.99;99246.28;4936167;28;20060;-83
2023/06/15 13:58:50;;;;;;;4.97;3.05;;;;;;;27.01;67.80;99261.47;4936376;29;20138;-85
2023/06/15 14:01:18;;;;;;;1.30;1.05;;;;;;;26.54;68.40;99207.94;4935088;29;20035;-83
2023/06/15 14:03:44;;;;;;;2.05;1.40;;;;;;;26.69;67.69;99243.59;4940755;29;20031;-83
2023/06/15 14:06:10;;;;;;;2.47;1.20;;;;;;;26.74;70.21;99235.94;4937801;29;20033;-83
2023/06/15 14:08:35;;;;;;;3.20;1.73;;;;;;;26.51;71.50;99239.78;4941795;29;20027;-82
2023/06/15 14:11:01;;;;;;;1.85;1.27;;;;;;;26.44;70.87;99210.59;4946881;29;20032;-83
2023/06/15 14:13:26;;;;;;;3.28;1.50;;;;;;;26.51;71.66;99202.81;4938584;29;20497;-84
2023/06/15 14:15:52;;;;;;;2.50;1.30;;;;;;;26.70;72.08;99212.00;4938666;29;20035;-83
2023/06/15 14:18:17;;;;;;;3.67;1.42;;;;;;;26.56;71.70;99192.41;4950883;29;20110;-83
2023/06/15 14:20:43;;;;;;;1.70;0.98;;;;;;;26.75;70.10;99212.44;4951672;29;20433;-84
2023/06/15 14:23:09;;;;;;;1.48;1.13;;;;;;;26.94;70.30;99211.59;4950266;29;20035;-83
2023/06/15 14:25:35;;;;;;;1.73;1.08;;;;;;;27.14;69.52;99210.66;4944860;29;20385;-83
2023/06/15 14:28:00;;;;;;;1.48;0.93;;;;;;;27.21;67.42;99216.34;4940417;29;20043;-83
2023/06/15 14:30:26;;;;;;;2.50;1.38;;;;;;;26.92;68.42;99198.22;4936523;29;20046;-85
2023/06/15 14:32:51;;;;;;;2.30;1.45;;;;;;;26.78;67.35;99195.94;4935448;29;20031;-85
2023/06/15 14:35:17;;;;;;;1.73;0.95;;;;;;;26.74;68.59;99200.75;4940295;29;20491;-83
2023/06/15 14:37:42;;;;;;;1.23;1.13;;;;;;;26.74;67.84;99208.88;4937374;28;20133;-84
2023/06/15 14:40:08;;;;;;;2.08;1.17;;;;;;;26.38;69.42;99188.66;4938107;29;20040;-85
2023/06/15 14:42:33;;;;;;;2.63;1.95;;;;;;;26.56;70.92;99197.81;4932262;29;20488;-84
2023/06/15 14:44:59;;;;;;;2.83;1.35;;;;;;;26.78;70.27;99179.69;4938875;29;20063;-84
2023/06/15 14:47:25;;;;;;;3.50;1.48;;;;;;;27.16;67.58;99224.06;4938501;29;20020;-84
2023/06/15 14:49:50;;;;;;;5.85;1.80;;;;;;;26.88;65.22;99190.53;4936924;29;20033;-84
2023/06/15 14:52:16;;;;;;;2.88;2.10;;;;;;;27.16;64.98;99229.47;4938293;29;20035;-84
2023/06/15 14:54:41;;;;;;;2.30;1.23;;;;;;;26.78;64.05;99144.53;4940908;29;20067;-84
2023/06/15 14:57:13;;;;;;;2.75;1.70;;;;;;;27.24;63.66;99182.75;4935012;29;20023;-85
2023/06/15 14:59:38;;;;;;;3.47;1.52;;;;;;;27.56;64.71;99206.84;4938168;29;20086;-85
2023/06/15 15:02:04;;;;;;;2.17;1.83;;;;;;;27.81;65.51;99204.53;4940593;29;20028;-86
2023/06/15 15:04:30;;;;;;;4.43;2.20;;;;;;;28.09;64.45;99172.13;4942159;29;20089;-85
2023/06/15 15:06:56;;;;;;;1.73;1.58;;;;;;;27.95;63.10;99163.44;4942626;28;20024;-87
2023/06/15 15:09:21;;;;;;;2.88;1.98;;;;;;;28.49;62.17;99163.66;4948520;29;20031;-85
2023/06/15 15:11:46;;;;;;;2.65;1.88;;;;;;;28.45;63.00;99155.97;4940981;29;20493;-85
2023/06/15 15:14:13;;;;;;;2.95;1.42;;;;;;;28.68;62.93;99129.31;4941364;29;20046;-85
2023/06/15 15:16:39;;;;;;;5.45;1.75;;;;;;;28.55;61.72;99154.91;4941338;29;20043;-85
2023/06/15 15:19:05;;;;;;;2.70;1.50;;;;;;;28.44;60.78;99155.13;4940963;29;20058;-84
2023/06/15 15:21:31;;;;;;;3.25;1.95;;;;;;;28.61;61.11;99169.75;4941844;29;20478;-84
2023/06/15 15:23:57;;;;;;;2.80;1.67;;;;;;;28.58;61.45;99157.34;4943311;29;20023;-83
2023/06/15 15:26:23;;;;;;;3.22;1.83;;;;;;;28.81;61.02;99170.50;4922415;29;20050;-83
2023/06/15 15:28:48;;;;;;;1.52;1.42;;;;;;;28.56;58.88;99148.47;4941505;29;20032;-82
2023/06/15 15:31:14;;;;;;;3.25;1.63;;;;;;;28.66;59.11;99153.88;4939653;29;20031;-83
2023/06/15 15:33:39;;;;;;;3.22;2.00;;;;;;;28.18;59.67;99125.13;4942781;29;20128;-83
2023/06/15 15:36:05;;;;;;;2.40;1.70;;;;;;;28.51;59.62;99148.06;4940821;29;20389;-82
2023/06/15 15:38:30;;;;;;;2.63;1.63;;;;;;;28.58;59.72;99167.31;4945637;29;20117;-83
2023/06/15 15:40:56;;;;;;;2.33;1.67;;;;;;;28.79;60.48;99168.94;4939535;29;20028;-83
2023/06/15 15:43:21;;;;;;;2.60;1.63;;;;;;;28.54;59.44;99147.75;4937747;29;20075;-83
2023/06/15 15:45:47;;;;;;;4.00;2.63;;;;;;;28.26;59.78;99110.81;4937954;29;20035;-82
2023/06/15 15:48:12;;;;;;;6.55;1.90;;;;;;;28.65;59.69;99149.44;4938893;29;20167;-82
2023/06/15 15:50:38;;;;;;;3.53;1.98;;;;;;;28.67;59.14;99171.88;4941369;29;20035;-82
2023/06/15 15:53:03;;;;;;;3.22;2.03;;;;;;;28.72;59.17;99153.25;4940588;29;20031;-83
2023/06/15 15:55:29;;;;;;;2.40;1.73;;;;;;;28.78;59.56;99167.22;4937191;29;20118;-83
2023/06/15 15:57:55;;;;;;;4.13;2.15;;;;;;;29.01;59.35;99151.34;4940392;29;20036;-83
2023/06/15 16:00:21;;;;;;;2.13;1.45;;;;;;;29.17;58.39;99166.94;4942573;29;20050;-81
2023/06/15 16:02:47;;;;;;;2.28;1.42;;;;;;;29.24;57.43;99125.47;4940386;29;20031;-81
2023/06/15 16:05:13;;;;;;;2.72;1.83;;;;;;;29.59;56.31;99156.28;4940389;29;20577;-80
2023/06/15 16:07:40;;;;;;;2.33;1.45;;;;;;;29.56;57.41;99169.34;4942711;29;20099;-80
2023/06/15 16:10:06;;;;;;;2.80;1.67;;;;;;;29.45;57.07;99144.13;4938171;29;20035;-81
2023/06/15 16:12:32;;;;;;;3.00;1.38;;;;;;;29.51;57.78;99150.81;4939424;29;20023;-80
2023/06/15 16:14:57;;;;;;;2.58;1.45;;;;;;;29.34;58.58;99119.09;4939362;29;20139;-80
2023/06/15 16:17:23;;;;;;;3.25;1.70;;;;;;;29.43;57.56;99137.16;4939889;29;20047;-82
2023/06/15 16:19:48;;;;;;;2.17;1.40;;;;;;;29.37;58.34;99137.78;4938920;29;20048;-82
2023/06/15 16:22:14;;;;;;;2.38;1.63;;;;;;;29.13;58.67;99141.09;4940649;29;20114;-81
2023/06/15 16:24:40;;;;;;;3.08;2.03;;;;;;;28.94;59.38;99132.13;4940810;29;20094;-81
2023/06/15 16:27:07;;;;;;;2.10;1.23;;;;;;;28.98;59.44;99128.09;4938968;29;20031;-84
2023/06/15 16:29:33;;;;;;;2.30;1.42;;;;;;;28.94;60.28;99137.53;4938309;29;20748;-83
2023/06/15 16:31:58;;;;;;;2.15;1.38;;;;;;;28.79;60.34;99133.66;4949553;29;20039;-83
2023/06/15 16:34:24;;;;;;;2.25;1.80;;;;;;;28.70;60.97;99133.56;4952670;29;20038;-83
2023/06/15 16:36:49;;;;;;;4.50;2.45;;;;;;;28.62;60.79;99121.78;4940023;29;20079;-80
2023/06/15 16:39:41;;;;;;;2.05;1.00;;;;;;;28.78;60.94;99145.50;4933451;29;20047;-81
2023/06/15 16:42:06;;;;;;;2.17;1.55;;;;;;;28.45;61.52;99093.59;4947455;29;20097;-81
2023/06/15 16:44:32;;;;;;;1.52;1.08;;;;;;;28.44;61.30;99122.56;4947875;29;20461;-81
2023/06/15 16:46:58;;;;;;;2.38;1.98;;;;;;;28.51;61.10;99115.50;4951430;29;20481;-84
2023/06/15 16:49:23;;;;;;;1.70;1.45;;;;;;;28.32;61.18;99096.66;4952557;29;20043;-81
2023/06/15 16:51:48;;;;;;;3.15;1.73;;;;;;;28.51;60.87;99133.66;4952147;29;20023;-81
2023/06/15 16:54:15;;;;;;;2.83;1.98;;;;;;;28.34;60.41;99109.03;4952188;29;20489;-81
2023/06/15 16:56:40;;;;;;;2.92;1.80;;;;;;;28.29;60.37;99114.09;4952249;29;20033;-82
2023/06/15 16:59:06;;;;;;;2.63;1.58;;;;;;;28.31;60.63;99131.03;4934400;29;20118;-82
2023/06/15 17:01:32;;;;;;;3.30;1.40;;;;;;;28.17;61.36;99108.00;4952605;29;20098;-82
2023/06/15 17:03:57;;;;;;;2.65;1.55;;;;;;;28.00;62.40;99098.81;4951925;29;20398;-83
2023/06/15 17:06:23;;;;;;;2.08;1.50;;;;;;;28.02;63.16;99115.78;4952226;29;20485;-82
2023/06/15 17:08:48;;;;;;;2.92;1.77;;;;;;;27.94;64.38;99137.31;4951756;29;20489;-82
2023/06/15 17:11:13;;;;;;;2.63;1.65;;;;;;;27.80;66.13;99122.38;4949370;29;20422;-83
2023/06/15 17:13:39;;;;;;;2.60;1.75;;;;;;;27.76;66.82;99130.94;4949081;29;20110;-83
2023/06/15 17:16:04;;;;;;;2.47;1.50;;;;;;;27.62;67.04;99130.44;4937469;29;20059;-83
2023/06/15 17:18:30;;;;;;;1.75;1.55;;;;;;;27.56;67.92;99133.72;4942469;29;20469;-83
2023/06/15 17:20:55;;;;;;;2.30;1.52;;;;;;;27.49;68.64;99128.00;4938883;29;20023;-83
2023/06/15 17:23:21;;;;;;;3.03;2.05;;;;;;;27.40;68.83;99098.25;4933756;29;20462;-82
2023/06/15 17:25:47;;;;;;;1.50;1.40;;;;;;;27.38;69.51;99111.09;4941937;29;20077;-83
2023/06/15 17:28:12;;;;;;;4.68;2.10;;;;;;;27.24;70.61;99110.50;4935584;29;20123;-82
2023/06/15 17:30:40;;;;;;;4.38;2.15;;;;;;;27.15;70.89;99116.78;4936385;29;20337;-84
2023/06/15 17:33:06;;;;;;;3.78;2.40;;;;;;;27.33;71.08;99133.19;4935173;29;20031;-84
2023/06/15 17:35:31;;;;;;;2.35;1.70;;;;;;;27.09;71.20;99109.22;4942763;29;20047;-83
2023/06/15 17:37:57;;;;;;;1.85;1.58;;;;;;;27.12;70.95;99127.88;4943473;29;20071;-84
2023/06/15 17:40:23;;;;;;;2.28;1.40;;;;;;;26.90;71.03;99088.44;4936595;29;20031;-82
2023/06/15 17:42:51;;;;;;;2.40;1.58;;;;;;;27.03;70.98;99126.03;4936294;29;20040;-82
2023/06/15 17:45:16;;;;;;;4.05;2.00;;;;;;;27.03;71.53;99134.16;4939405;29;20477;-82
2023/06/15 17:47:43;;;;;;;3.33;1.88;;;;;;;26.79;71.64;99108.38;4937033;29;20071;-82
2023/06/15 17:50:09;;;;;;;3.92;1.70;;;;;;;26.86;71.96;99141.13;4931310;29;20039;-83
2023/06/15 17:52:34;;;;;;;2.70;1.98;;;;;;;26.65;72.46;99116.84;4942869;29;20424;-82
2023/06/15 17:55:00;;;;;;;2.28;1.30;;;;;;;26.55;72.32;99108.72;4943510;29;20038;-83
2023/06/15 17:57:25;;;;;;;2.10;1.20;;;;;;;26.54;72.65;99112.41;4939038;29;20031;-83
2023/06/15 17:59:52;;;;;;;2.35;1.30;;;;;;;26.59;72.28;99129.94;4939764;29;20490;-82
2023/06/15 18:02:18;;;;;;;2.55;1.63;;;;;;;26.58;72.26;99117.41;4934380;29;20079;-82
2023/06/15 18:04:43;;;;;;;2.92;2.53;;;;;;;26.47;73.21;99131.06;4938326;29;20039;-82
2023/06/15 18:07:09;;;;;;;2.50;1.40;;;;;;;26.19;73.62;99105.66;4936879;29;20414;-83
2023/06/15 18:09:35;;;;;;;3.47;1.88;;;;;;;26.25;74.05;99132.97;4942813;29;20461;-82
2023/06/15 18:12:00;;;;;;;4.60;2.08;;;;;;;26.16;74.26;99127.53;4943007;29;20058;-82
2023/06/15 18:14:26;;;;;;;4.32;2.17;;;;;;;26.29;74.46;99151.63;4938823;29;20552;-83
2023/06/15 18:16:51;;;;;;;3.13;2.05;;;;;;;26.14;74.53;99133.09;4940497;29;20074;-82
2023/06/15 18:19:17;;;;;;;2.88;1.55;;;;;;;26.09;74.58;99121.84;4941237;29;20067;-82
2023/06/15 18:21:43;;;;;;;3.22;1.98;;;;;;;26.06;75.34;99138.31;4941357;29;20548;-83
2023/06/15 18:24:11;;;;;;;2.88;1.30;;;;;;;25.74;76.15;99117.66;4936093;29;20486;-81
2023/06/15 18:26:37;;;;;;;2.75;1.73;;;;;;;25.97;75.98;99144.50;4938678;29;20051;-81
2023/06/15 18:29:03;;;;;;;2.45;1.33;;;;;;;25.75;77.24;99151.78;4938867;29;20035;-80
2023/06/15 18:31:29;;;;;;;12.15;2.72;;;;;;;25.75;77.05;99149.09;4934898;29;20023;-83
2023/06/15 18:33:55;;;;;;;3.40;1.80;;;;;;;25.74;77.25;99152.78;4943999;29;20059;-81
2023/06/15 18:36:21;;;;;;;2.58;1.67;;;;;;;25.84;77.17;99158.22;4940140;29;20097;-83
2023/06/15 18:38:47;;;;;;;1.10;0.95;;;;;;;25.59;77.66;99143.28;4938340;29;20035;-81
2023/06/15 18:41:12;;;;;;;2.05;1.25;;;;;;;25.57;77.73;99131.78;4939392;28;20119;-80
2023/06/15 18:43:39;;;;;;;2.75;1.35;;;;;;;25.69;77.68;99149.63;4942162;29;20039;-81
2023/06/15 18:46:05;;;;;;;2.00;1.48;;;;;;;25.40;77.99;99117.03;4939687;29;20086;-82
2023/06/15 18:48:31;;;;;;;5.43;2.25;;;;;;;25.45;78.27;99144.47;4944155;29;20028;-81
2023/06/15 18:50:58;;;;;;;1.58;1.42;;;;;;;25.52;78.21;99160.03;4948353;29;20063;-80
2023/06/15 18:53:24;;;;;;;2.70;1.80;;;;;;;25.38;77.40;99145.00;4948272;29;20050;-81
2023/06/15 18:55:49;;;;;;;2.85;2.08;;;;;;;25.37;77.58;99150.53;4940265;29;20027;-81
2023/06/15 18:58:16;;;;;;;2.35;1.33;;;;;;;25.13;77.66;99148.03;4941666;29;20031;-80
2023/06/15 19:00:43;;;;;;;10.90;1.35;;;;;;;25.31;77.13;99137.56;4941108;29;20071;-82
2023/06/15 19:03:09;;;;;;;4.50;1.85;;;;;;;25.23;78.08;99130.09;4941901;29;20032;-81
2023/06/15 19:05:35;;;;;;;1.98;1.38;;;;;;;25.17;78.47;99130.59;4937837;29;20031;-82
2023/06/15 19:08:01;;;;;;;8.30;2.08;;;;;;;25.22;79.49;99141.84;4941093;29;20035;-82
2023/06/15 19:10:27;;;;;;;6.93;1.38;;;;;;;25.19;79.71;99144.81;4942614;29;20781;-82
2023/06/15 19:12:53;;;;;;;3.00;1.83;;;;;;;25.19;79.74;99150.22;4935201;29;20090;-81
2023/06/15 19:15:18;;;;;;;2.53;1.30;;;;;;;25.02;79.88;99130.03;4938312;29;20054;-81
2023/06/15 19:17:44;;;;;;;3.40;2.30;;;;;;;24.96;80.86;99153.03;4941671;29;20070;-81
2023/06/15 19:20:10;;;;;;;2.50;1.98;;;;;;;24.88;80.14;99133.06;4938823;29;20134;-81
2023/06/15 19:22:36;;;;;;;3.40;2.47;;;;;;;24.92;78.91;99162.34;4938877;29;20035;-82
2023/06/15 19:25:02;;;;;;;1.67;1.58;;;;;;;24.57;78.85;99116.69;4942772;29;20406;-81
2023/06/15 19:27:28;;;;;;;1.65;1.05;;;;;;;24.70;78.80;99146.22;4940222;29;20115;-82
2023/06/15 19:29:55;;;;;;;3.28;2.35;;;;;;;24.51;79.14;99134.22;4939486;29;20122;-82
2023/06/15 19:32:21;;;;;;;5.20;1.33;;;;;;;24.53;79.82;99126.00;4936259;29;20031;-81
2023/06/15 19:34:47;;;;;;;2.30;1.45;;;;;;;24.54;80.61;99125.88;4936955;29;20055;-82
2023/06/15 19:37:12;;;;;;;3.22;1.77;;;;;;;24.69;80.32;99134.59;4924036;29;20568;-84
2023/06/15 19:39:38;;;;;;;0.80;0.80;;;;;;;24.38;81.23;99099.34;4941711;29;20036;-81
2023/06/15 19:42:05;;;;;;;2.75;1.65;;;;;;;24.53;81.61;99115.22;4927021;29;20419;-82
2023/06/15 19:44:32;;;;;;;2.53;1.45;;;;;;;24.52;82.00;99110.84;4938935;29;20074;-82
2023/06/15 19:46:58;;;;;;;2.53;2.30;;;;;;;24.64;82.01;99117.94;4941463;29;20036;-83
2023/06/15 19:49:24;;;;;;;2.63;1.55;;;;;;;24.51;83.44;99117.19;4941874;29;20036;-84
2023/06/15 19:51:49;;;;;;;1.73;1.38;;;;;;;24.52;83.24;99100.06;4940249;29;20039;-84
2023/06/15 19:54:15;;;;;;;3.08;1.77;;;;;;;24.64;83.51;99117.94;4941577;28;20481;-83
2023/06/15 19:56:41;;;;;;;1.15;0.95;;;;;;;24.55;84.06;99115.97;4938942;29;20422;-83
2023/06/15 19:59:06;;;;;;;3.55;1.30;;;;;;;24.62;84.36;99130.66;4941462;29;20035;-83
2023/06/15 20:01:32;;;;;;;6.65;2.35;;;;;;;24.50;84.83;99113.66;4944312;29;20038;-83
2023/06/15 20:03:58;;;;;;;2.70;1.52;;;;;;;24.47;84.94;99117.44;4938619;29;20032;-85
2023/06/15 20:06:23;;;;;;;1.85;1.40;;;;;;;24.32;85.60;99099.84;4946393;29;20046;-84
2023/06/15 20:08:49;;;;;;;2.15;1.25;;;;;;;24.10;85.82;99074.63;4943267;29;20031;-83
2023/06/15 20:11:15;;;;;;;4.00;2.13;;;;;;;24.33;85.41;99100.69;4926689;29;20097;-84
2023/06/15 20:13:40;;;;;;;3.08;2.03;;;;;;;24.47;85.43;99114.75;4924057;29;20031;-84
2023/06/15 20:16:15;;;;;;;2.95;2.05;;;;;;;24.41;85.77;99117.94;4942167;29;20123;-84
2023/06/15 20:18:44;;;;;;;2.15;1.70;;;;;;;24.07;86.15;99095.59;4920386;29;20105;-85
2023/06/15 20:21:10;;;;;;;2.75;1.77;;;;;;;24.03;86.61;99088.72;4942993;29;20091;-84
2023/06/15 20:23:35;;;;;;;2.92;1.88;;;;;;;24.15;86.81;99114.69;4940046;29;20477;-85
2023/06/15 20:26:02;;;;;;;2.38;1.33;;;;;;;24.06;87.19;99104.63;4923726;29;20054;-85
2023/06/15 20:28:30;;;;;;;1.83;1.10;;;;;;;24.04;86.79;99095.84;4939672;29;20027;-87
2023/06/15 20:30:56;;;;;;;4.35;1.48;;;;;;;24.05;86.43;99100.22;4939228;29;20046;-84
2023/06/15 20:33:22;;;;;;;2.80;1.95;;;;;;;24.32;86.34;99132.19;4941617;29;20034;-84
2023/06/15 20:35:47;;;;;;;3.70;2.53;;;;;;;24.21;85.84;99135.75;4939795;29;20601;-84
2023/06/15 20:38:13;;;;;;;3.80;2.58;;;;;;;24.04;86.01;99114.69;4944328;29;20023;-84
2023/06/15 20:40:38;;;;;;;8.75;2.03;;;;;;;23.83;87.66;99112.69;4942560;29;20538;-84
2023/06/15 20:43:04;;;;;;;2.55;2.05;;;;;;;23.94;88.67;99149.56;4939561;29;20061;-83
2023/06/15 20:45:29;;;;;;;5.90;3.47;;;;;;;23.66;87.65;99092.47;4920576;29;20039;-82
2023/06/15 20:47:55;;;;;;;2.65;2.10;;;;;;;23.67;87.92;99109.50;4935447;29;20125;-83
2023/06/15 20:50:21;;;;;;;6.65;4.95;;;;;;;24.13;86.84;99140.91;4941443;29;20463;-83
2023/06/15 20:52:46;;;;;;;5.15;3.80;;;;;;;24.10;86.07;99142.00;4940168;29;20042;-81
2023/06/15 20:55:12;;;;;;;2.47;1.73;;;;;;;23.72;84.39;99147.69;4938602;29;20035;-80
2023/06/15 20:57:38;;;;;;;4.25;2.53;;;;;;;23.55;83.14;99143.63;4935481;29;20047;-82
2023/06/15 21:00:05;;;;;;;3.95;2.40;;;;;;;23.47;82.26;99113.75;4936518;29;20066;-82
2023/06/15 21:02:31;;;;;;;2.45;1.60;;;;;;;23.57;81.48;99142.53;4917139;29;20094;-82
2023/06/15 21:04:56;;;;;;;1.60;1.33;;;;;;;23.28;81.86;99120.56;4941081;29;20519;-81
2023/06/15 21:07:22;;;;;;;2.22;1.25;;;;;;;22.95;82.39;99113.19;4940245;29;20031;-82
2023/06/15 21:09:47;;;;;;;4.03;2.78;;;;;;;23.01;82.59;99158.44;4940859;29;20497;-82
2023/06/15 21:12:13;;;;;;;4.47;2.63;;;;;;;22.97;81.56;99149.75;4939040;29;20490;-81
2023/06/15 21:14:39;;;;;;;4.25;2.60;;;;;;;22.99;82.41;99158.56;4939945;29;20023;-81
2023/06/15 21:17:05;;;;;;;3.47;2.30;;;;;;;22.81;83.50;99160.78;4943376;29;20122;-81
2023/06/15 21:19:30;;;;;;;2.28;1.40;;;;;;;22.67;83.75;99136.75;4941393;29;20183;-81
2023/06/15 21:21:57;;;;;;;9.38;2.05;;;;;;;22.77;83.71;99162.00;4941853;29;20046;-82
2023/06/15 21:24:22;;;;;;;4.28;1.67;;;;;;;22.43;84.65;99123.28;4939094;29;20038;-81
2023/06/15 21:26:48;;;;;;;2.95;1.58;;;;;;;22.45;84.60;99138.34;4942186;29;20142;-81
2023/06/15 21:29:14;;;;;;;5.25;2.42;;;;;;;22.41;84.74;99138.69;4937376;29;20497;-81
2023/06/15 21:31:39;;;;;;;2.75;1.90;;;;;;;22.28;85.78;99144.06;4937818;29;20442;-81
2023/06/15 21:34:05;;;;;;;3.03;2.25;;;;;;;22.17;84.58;99134.09;4939371;29;20070;-81
2023/06/15 21:36:30;;;;;;;4.57;2.83;;;;;;;22.37;84.82;99161.34;4941081;29;20386;-81
2023/06/15 21:38:56;;;;;;;2.58;1.77;;;;;;;22.56;83.71;99168.97;4938343;29;20031;-80
2023/06/15 21:41:23;;;;;;;1.92;1.60;;;;;;;22.39;83.53;99154.91;4939612;29;20035;-80
2023/06/15 21:43:49;;;;;;;1.60;1.15;;;;;;;22.31;83.34;99133.97;4944235;29;20066;-82
2023/06/15 21:46:14;;;;;;;1.55;1.35;;;;;;;22.26;82.42;99111.06;4938566;29;20027;-81
2023/06/15 21:48:40;;;;;;;3.45;2.10;;;;;;;22.25;83.24;99142.44;4939348;29;20043;-81
2023/06/15 21:51:05;;;;;;;2.35;1.58;;;;;;;22.37;83.46;99159.53;4952297;29;20034;-82
2023/06/15 21:53:31;;;;;;;2.88;1.88;;;;;;;22.44;83.54;99133.06;4943894;29;20030;-82
2023/06/15 21:55:56;;;;;;;11.38;2.10;;;;;;;22.50;83.71;99117.34;4952613;29;20094;-81
2023/06/15 21:58:21;;;;;;;2.42;2.03;;;;;;;22.78;83.46;99136.81;4950658;29;20035;-81